Time;durP1;ratioP1;P1;durP2;ratioP2;P2;SDS_P1;SDS_P2;PMS_P1;PMS_P2;Temp;Humidity;BMP_temperature;BMP_pressure;BME280_temperature;BME280_humidity;BME280_pressure;Samples;Min_cycle;Max_cycle;Signal;HPM_P1;HPM_P2
2023/06/30 00:03:15;;;;;;;9.35;5.68;;;;;;;18.31;68.79;99856.09;10450100;28;20071;-84
2023/06/30 00:08:17;;;;;;;10.05;5.63;;;;;;;18.33;68.53;99849.00;10423579;28;20040;-84
2023/06/30 00:13:19;;;;;;;8.57;5.55;;;;;;;18.21;69.34;99862.91;10429615;28;20044;-84
2023/06/30 00:18:21;;;;;;;9.07;5.45;;;;;;;18.13;69.84;99861.09;10405984;28;20037;-84
2023/06/30 00:23:27;;;;;;;8.68;4.93;;;;;;;18.17;69.51;99867.56;10430653;28;20048;-84
2023/06/30 00:28:29;;;;;;;8.32;5.15;;;;;;;18.15;69.55;99858.78;10409439;28;20036;-84
2023/06/30 00:33:32;;;;;;;8.90;4.70;;;;;;;18.15;69.27;99858.78;10399506;28;20588;-84
2023/06/30 00:38:34;;;;;;;13.95;5.43;;;;;;;18.17;69.33;99862.00;10417094;28;20037;-84
2023/06/30 00:43:39;;;;;;;9.38;5.35;;;;;;;18.17;69.10;99863.97;10408108;28;20495;-86
2023/06/30 00:48:50;;;;;;;11.57;5.45;;;;;;;18.18;69.12;99857.28;10463189;28;20032;-86
2023/06/30 00:53:55;;;;;;;9.07;5.30;;;;;;;18.21;68.62;99857.38;10481540;28;20063;-83
2023/06/30 00:58:58;;;;;;;10.02;5.40;;;;;;;18.16;68.74;99857.63;10436688;28;20043;-83
2023/06/30 01:04:17;;;;;;;12.35;5.10;;;;;;;18.26;68.69;99865.47;10459843;28;20040;-83
2023/06/30 01:09:22;;;;;;;11.20;5.18;;;;;;;18.26;68.20;99861.88;10500828;28;20365;-84
2023/06/30 01:14:24;;;;;;;7.30;5.15;;;;;;;18.26;68.53;99859.91;10467225;28;20048;-84
2023/06/30 01:19:34;;;;;;;12.50;4.97;;;;;;;18.34;68.10;99850.63;10458768;28;20032;-83
2023/06/30 01:24:37;;;;;;;6.88;4.80;;;;;;;18.40;68.88;99853.97;10471509;28;20040;-83
2023/06/30 01:29:42;;;;;;;8.85;5.35;;;;;;;18.38;68.30;99851.53;10466070;28;20046;-83
2023/06/30 01:34:45;;;;;;;8.75;5.32;;;;;;;18.45;68.10;99853.72;10448352;28;20048;-84
2023/06/30 01:39:47;;;;;;;9.25;5.53;;;;;;;18.43;68.44;99846.91;10485674;28;20044;-83
2023/06/30 01:44:49;;;;;;;10.13;5.70;;;;;;;18.44;68.74;99854.88;10470093;28;20052;-83
2023/06/30 01:49:52;;;;;;;9.10;5.65;;;;;;;18.47;67.87;99848.63;10455005;28;20055;-83
2023/06/30 01:54:54;;;;;;;10.40;5.82;;;;;;;18.60;67.26;99844.63;10472772;28;20541;-83
2023/06/30 01:59:56;;;;;;;9.80;5.63;;;;;;;18.74;67.95;99835.88;10488602;28;20041;-83
2023/06/30 02:04:58;;;;;;;10.48;5.28;;;;;;;19.08;65.88;99828.84;10478754;28;20059;-83
2023/06/30 02:10:01;;;;;;;7.72;5.15;;;;;;;19.47;64.93;99829.06;10448036;28;20033;-83
2023/06/30 02:15:11;;;;;;;8.68;5.35;;;;;;;19.68;63.82;99828.78;10456149;28;20041;-83
2023/06/30 02:20:14;;;;;;;8.80;5.47;;;;;;;19.90;62.63;99825.31;10456619;28;20047;-84
2023/06/30 02:25:16;;;;;;;9.27;5.45;;;;;;;20.00;61.36;99824.75;10477552;28;20415;-83
2023/06/30 02:30:20;;;;;;;7.93;4.65;;;;;;;20.16;61.23;99833.84;10472987;28;20040;-84
2023/06/30 02:35:22;;;;;;;7.68;5.25;;;;;;;20.35;60.52;99823.91;10482032;28;20044;-84
2023/06/30 02:40:26;;;;;;;9.43;5.63;;;;;;;20.54;59.86;99821.13;10436639;28;20043;-84
2023/06/30 02:45:28;;;;;;;8.95;5.32;;;;;;;20.74;59.99;99821.91;10473848;28;20044;-83
2023/06/30 02:50:31;;;;;;;10.02;6.13;;;;;;;21.00;58.73;99813.66;10487114;28;20028;-83
2023/06/30 02:55:36;;;;;;;9.40;6.30;;;;;;;21.44;58.89;99812.41;10462661;28;20047;-83
2023/06/30 03:00:39;;;;;;;9.63;6.10;;;;;;;21.78;58.11;99813.31;10497266;28;20047;-83
2023/06/30 03:05:42;;;;;;;9.38;6.35;;;;;;;22.18;57.22;99818.28;10472305;28;20047;-83
2023/06/30 03:10:44;;;;;;;10.45;6.50;;;;;;;22.15;57.77;99814.25;10465855;28;20061;-83
2023/06/30 03:15:47;;;;;;;12.20;6.93;;;;;;;22.43;57.39;99808.25;10481892;28;20052;-83
2023/06/30 03:20:49;;;;;;;9.73;6.40;;;;;;;22.51;57.03;99809.13;10482087;28;20063;-83
2023/06/30 03:25:52;;;;;;;10.32;6.35;;;;;;;22.64;56.55;99812.47;10460804;28;20044;-83
2023/06/30 03:30:54;;;;;;;13.68;7.22;;;;;;;22.66;55.90;99813.69;10475964;28;20483;-83
2023/06/30 03:35:57;;;;;;;9.77;6.63;;;;;;;22.88;56.06;99814.75;10458337;28;20036;-83
2023/06/30 03:41:00;;;;;;;15.93;7.95;;;;;;;23.33;54.20;99810.78;10481400;28;20376;-83
2023/06/30 03:46:05;;;;;;;13.38;7.90;;;;;;;23.16;54.46;99803.81;10461115;28;20044;-83
2023/06/30 03:51:07;;;;;;;12.27;6.88;;;;;;;23.36;54.35;99803.59;10475062;28;20047;-84
2023/06/30 03:56:12;;;;;;;11.85;7.22;;;;;;;23.35;54.61;99802.78;10479890;28;20411;-84
2023/06/30 04:01:20;;;;;;;13.82;7.75;;;;;;;23.85;53.00;99808.78;10480925;28;20052;-84
2023/06/30 04:06:24;;;;;;;13.52;7.32;;;;;;;24.09;52.74;99798.88;10497029;28;20392;-83
2023/06/30 04:11:27;;;;;;;10.88;7.70;;;;;;;24.33;52.29;99787.03;10479284;28;20035;-84
2023/06/30 04:16:29;;;;;;;13.63;7.45;;;;;;;24.39;51.42;99792.25;10465324;28;20492;-84
2023/06/30 04:21:31;;;;;;;10.85;6.60;;;;;;;24.73;50.67;99790.75;10495873;28;20518;-84
2023/06/30 04:26:34;;;;;;;11.65;7.35;;;;;;;25.09;50.36;99799.25;10472761;28;20048;-84
2023/06/30 04:31:36;;;;;;;12.75;6.25;;;;;;;25.17;49.34;99787.63;10492002;28;20051;-87
2023/06/30 04:36:38;;;;;;;12.10;6.55;;;;;;;25.59;47.65;99785.19;10480622;28;20043;-82
2023/06/30 04:41:40;;;;;;;10.63;5.68;;;;;;;25.76;46.60;99773.16;10468846;28;20056;-82
2023/06/30 04:46:42;;;;;;;8.18;5.28;;;;;;;26.22;45.25;99786.28;10477991;28;20041;-82
2023/06/30 04:51:44;;;;;;;8.13;4.93;;;;;;;26.21;44.67;99787.44;10460814;28;20055;-83
2023/06/30 04:56:46;;;;;;;10.75;5.43;;;;;;;26.26;44.28;99778.59;10475773;28;20045;-82
2023/06/30 05:02:00;;;;;;;;;;;;;;;;;;;;;
2023/06/30 05:07:09;;;;;;;9.10;4.97;;;;;;;27.02;42.44;99775.00;10474354;28;20044;-82
2023/06/30 05:12:14;;;;;;;8.85;4.78;;;;;;;27.42;42.25;99784.72;10440326;28;20044;-82
2023/06/30 05:17:17;;;;;;;8.40;4.70;;;;;;;27.70;41.36;99780.88;10473266;28;20384;-82
2023/06/30 05:22:19;;;;;;;7.47;5.10;;;;;;;27.25;41.98;99778.03;10475093;28;20044;-81
2023/06/30 05:27:21;;;;;;;7.53;4.63;;;;;;;27.21;42.19;99776.44;10477129;28;20518;-83
2023/06/30 05:32:23;;;;;;;7.32;4.13;;;;;;;27.91;40.88;99777.81;10476264;28;20037;-82
2023/06/30 05:37:26;;;;;;;6.68;4.53;;;;;;;28.14;40.46;99767.91;10491743;28;20041;-84
2023/06/30 05:42:28;;;;;;;6.22;4.25;;;;;;;28.00;40.61;99768.88;10486536;28;20048;-84
2023/06/30 05:47:30;;;;;;;5.97;4.35;;;;;;;28.38;39.76;99763.19;10492376;28;20075;-82
2023/06/30 05:52:32;;;;;;;8.40;4.30;;;;;;;28.66;39.59;99753.53;10458732;28;20036;-82
2023/06/30 05:57:34;;;;;;;4.65;4.15;;;;;;;28.80;39.14;99761.75;10435942;28;20048;-82
2023/06/30 06:02:37;;;;;;;5.95;4.40;;;;;;;29.19;39.03;99766.03;10463992;28;20388;-82
2023/06/30 06:07:40;;;;;;;6.05;3.95;;;;;;;29.01;38.44;99767.13;10476290;28;20047;-82
2023/06/30 06:12:42;;;;;;;6.80;4.72;;;;;;;28.49;39.87;99764.66;10473368;28;20051;-81
2023/06/30 06:17:44;;;;;;;5.15;4.47;;;;;;;29.26;39.34;99769.53;10475895;28;20040;-83
2023/06/30 06:22:46;;;;;;;5.65;4.63;;;;;;;29.63;38.51;99760.03;10469776;28;20701;-83
2023/06/30 06:27:49;;;;;;;7.25;4.60;;;;;;;30.01;37.85;99754.03;10471268;28;20059;-82
2023/06/30 06:32:51;;;;;;;4.15;3.65;;;;;;;29.68;37.30;99753.88;10469902;28;20055;-83
2023/06/30 06:37:53;;;;;;;7.75;4.30;;;;;;;29.40;37.71;99752.34;10491358;28;20032;-84
2023/06/30 06:42:55;;;;;;;4.57;3.80;;;;;;;29.58;37.73;99748.41;10485415;28;20099;-82
2023/06/30 06:48:35;;;;;;;4.65;4.25;;;;;;;29.08;38.13;99755.69;10484794;28;20063;-82
2023/06/30 06:53:37;;;;;;;6.50;4.90;;;;;;;28.80;39.00;99753.28;10402167;28;20059;-83
2023/06/30 06:58:39;;;;;;;12.40;4.78;;;;;;;29.10;38.17;99753.25;10441091;28;20403;-83
2023/06/30 07:03:41;;;;;;;9.75;4.75;;;;;;;29.56;38.04;99745.22;10491880;28;20689;-82
2023/06/30 07:08:44;;;;;;;5.38;4.30;;;;;;;30.12;36.40;99743.34;10476187;28;20403;-82
2023/06/30 07:13:46;;;;;;;7.03;4.43;;;;;;;30.07;35.91;99741.03;10505188;28;20045;-82
2023/06/30 07:18:48;;;;;;;6.20;4.45;;;;;;;29.99;36.19;99740.31;10474038;28;20052;-82
2023/06/30 07:23:52;;;;;;;8.65;4.57;;;;;;;30.71;35.51;99738.81;10489623;28;20032;-82
2023/06/30 07:28:54;;;;;;;7.47;4.78;;;;;;;30.20;35.00;99736.31;10491826;28;20233;-81
2023/06/30 07:33:56;;;;;;;4.47;4.03;;;;;;;30.09;36.01;99735.72;10511985;28;20048;-82
2023/06/30 07:38:59;;;;;;;9.18;4.78;;;;;;;30.85;34.28;99730.00;10501778;28;20052;-82
2023/06/30 07:44:02;;;;;;;6.50;4.20;;;;;;;30.98;34.42;99733.72;10504816;28;20068;-84
2023/06/30 07:49:04;;;;;;;5.25;4.00;;;;;;;31.22;34.22;99731.53;10487942;28;20598;-82
2023/06/30 07:54:07;;;;;;;6.70;4.00;;;;;;;31.33;33.17;99728.41;10473575;28;20032;-81
2023/06/30 07:59:09;;;;;;;6.78;4.22;;;;;;;30.22;33.96;99725.34;10506821;28;20036;-82
2023/06/30 08:04:12;;;;;;;5.90;4.07;;;;;;;30.54;33.79;99724.59;10497062;28;20050;-82
2023/06/30 08:09:14;;;;;;;7.63;4.10;;;;;;;30.98;33.29;99716.72;10494532;28;20032;-83
2023/06/30 08:14:16;;;;;;;5.80;4.78;;;;;;;31.10;32.80;99715.22;10504637;28;20042;-83
2023/06/30 08:19:41;;;;;;;8.60;4.57;;;;;;;31.80;32.77;99708.94;10507826;28;20033;-87
2023/06/30 08:24:43;;;;;;;6.28;4.38;;;;;;;32.13;32.62;99714.47;10491001;28;20074;-81
2023/06/30 08:29:45;;;;;;;5.75;4.70;;;;;;;32.17;32.05;99709.47;10519089;28;20039;-82
2023/06/30 08:34:48;;;;;;;5.75;5.03;;;;;;;31.64;32.71;99711.78;10508764;28;20503;-81
2023/06/30 08:39:50;;;;;;;7.72;4.93;;;;;;;31.35;33.02;99704.03;10504640;28;20047;-84
2023/06/30 08:44:53;;;;;;;6.50;4.75;;;;;;;31.25;32.55;99696.63;10501173;28;20048;-83
2023/06/30 08:49:56;;;;;;;6.10;4.97;;;;;;;31.12;33.19;99695.72;10515424;28;20039;-81
2023/06/30 08:55:01;;;;;;;7.93;4.53;;;;;;;31.58;32.35;99685.19;10471105;28;20056;-81
2023/06/30 09:00:04;;;;;;;7.27;5.57;;;;;;;31.48;32.64;99695.63;10468302;28;20040;-84
2023/06/30 09:05:07;;;;;;;7.35;5.32;;;;;;;30.50;33.98;99681.41;10494316;28;20585;-82
2023/06/30 09:10:09;;;;;;;11.30;5.53;;;;;;;30.68;33.72;99677.41;10487755;28;20055;-84
2023/06/30 09:15:14;;;;;;;7.18;5.30;;;;;;;30.46;33.18;99674.25;10478846;28;20040;-84
2023/06/30 09:20:17;;;;;;;10.05;5.15;;;;;;;30.25;33.71;99673.50;10492244;28;20040;-81
2023/06/30 09:25:25;;;;;;;7.07;4.72;;;;;;;29.98;34.53;99670.03;10508300;28;20040;-83
2023/06/30 09:30:47;;;;;;;7.60;4.90;;;;;;;28.78;35.81;99668.22;10504895;28;20527;-85
2023/06/30 09:35:50;;;;;;;8.52;5.15;;;;;;;28.02;36.82;99664.88;10471813;28;20048;-85
2023/06/30 09:40:53;;;;;;;9.30;5.75;;;;;;;27.89;37.78;99661.03;10484610;28;20044;-83
2023/06/30 09:46:00;;;;;;;8.25;5.10;;;;;;;27.91;37.30;99673.47;10485379;28;20056;-83
2023/06/30 09:51:02;;;;;;;7.38;5.30;;;;;;;27.77;38.24;99681.31;10467403;28;20032;-84
2023/06/30 09:56:05;;;;;;;6.97;5.03;;;;;;;27.14;39.70;99684.38;10508520;28;20043;-83
2023/06/30 10:01:08;;;;;;;7.22;5.57;;;;;;;26.73;40.41;99673.06;10474233;28;20048;-86
2023/06/30 10:06:10;;;;;;;8.13;5.05;;;;;;;25.89;42.89;99692.81;10468387;28;20044;-84
2023/06/30 10:11:12;;;;;;;10.65;5.15;;;;;;;24.96;46.51;99686.53;10484552;28;20063;-83
2023/06/30 10:16:14;;;;;;;7.07;4.70;;;;;;;24.16;47.46;99694.41;10487645;28;20041;-85
2023/06/30 10:21:17;;;;;;;5.63;4.30;;;;;;;23.95;47.89;99709.13;10479968;28;20051;-85
2023/06/30 10:26:20;;;;;;;6.82;4.25;;;;;;;23.59;49.79;99719.34;10477691;28;20051;-86
2023/06/30 10:31:25;;;;;;;6.30;4.83;;;;;;;23.20;49.74;99722.69;10470347;28;20127;-85
2023/06/30 10:36:28;;;;;;;6.30;4.50;;;;;;;22.91;50.56;99727.28;10449627;28;20037;-86
2023/06/30 10:41:30;;;;;;;4.55;3.65;;;;;;;22.98;50.89;99726.50;10517364;28;20389;-85
2023/06/30 10:46:59;;;;;;;8.65;5.55;;;;;;;22.72;55.90;99711.47;10495787;28;20056;-83
2023/06/30 10:52:03;;;;;;;8.63;4.32;;;;;;;22.33;54.78;99702.69;10487946;28;20048;-85
2023/06/30 10:57:17;;;;;;;7.30;4.05;;;;;;;22.75;52.62;99696.72;10471065;28;20047;-84
2023/06/30 11:02:22;;;;;;;6.55;4.80;;;;;;;23.35;52.17;99701.19;10494944;28;20037;-84
2023/06/30 11:07:29;;;;;;;7.88;4.88;;;;;;;23.61;51.10;99703.78;10476260;28;20048;-86
2023/06/30 11:12:51;;;;;;;10.25;5.18;;;;;;;23.48;54.75;99710.88;10485322;28;20043;-86
2023/06/30 11:17:56;;;;;;;12.70;6.07;;;;;;;23.25;54.79;99691.53;10500890;28;20444;-86
2023/06/30 11:23:03;;;;;;;6.38;4.07;;;;;;;23.08;53.55;99687.44;10484000;28;20044;-85
2023/06/30 11:28:08;;;;;;;5.75;3.85;;;;;;;23.12;53.09;99693.03;10486880;28;20036;-87
2023/06/30 11:33:11;;;;;;;5.78;4.05;;;;;;;23.22;51.65;99692.31;10497266;28;20049;-87
2023/06/30 11:38:14;;;;;;;7.70;4.22;;;;;;;23.32;51.70;99685.19;10474255;28;20048;-87
2023/06/30 11:43:21;;;;;;;6.95;4.35;;;;;;;23.73;50.62;99669.03;10455956;28;20492;-85
2023/06/30 11:48:25;;;;;;;5.00;3.85;;;;;;;24.10;47.19;99657.53;10516316;28;20040;-84
2023/06/30 11:53:29;;;;;;;5.35;3.70;;;;;;;24.37;47.95;99646.03;10466748;28;20041;-87
2023/06/30 11:58:31;;;;;;;6.05;4.10;;;;;;;24.73;48.02;99644.84;10506881;28;20036;-86
2023/06/30 12:03:34;;;;;;;6.25;4.30;;;;;;;24.67;46.62;99629.63;10451586;28;20044;-85
2023/06/30 12:08:38;;;;;;;6.28;4.50;;;;;;;24.61;46.80;99620.78;10494077;28;20044;-87
2023/06/30 12:13:41;;;;;;;8.45;4.70;;;;;;;24.92;45.71;99630.41;10514006;28;20052;-88
2023/06/30 12:18:44;;;;;;;4.68;3.60;;;;;;;25.00;43.70;99622.00;10526140;28;20044;-86
2023/06/30 12:23:46;;;;;;;6.13;4.30;;;;;;;25.05;44.07;99594.31;10483076;28;20041;-85
2023/06/30 12:28:49;;;;;;;6.32;4.57;;;;;;;25.07;44.21;99588.31;10450424;28;20520;-87
2023/06/30 12:33:53;;;;;;;5.93;4.40;;;;;;;25.03;44.24;99590.31;10492250;28;20036;-84
2023/06/30 12:38:56;;;;;;;4.68;3.60;;;;;;;24.98;44.78;99588.69;10496501;28;20036;-87
2023/06/30 12:44:00;;;;;;;6.57;3.78;;;;;;;24.95;45.72;99583.88;10464403;28;20503;-89
2023/06/30 12:49:05;;;;;;;4.00;2.55;;;;;;;24.67;46.30;99581.94;10484345;28;20040;-85
2023/06/30 12:54:07;;;;;;;4.65;3.67;;;;;;;24.55;46.76;99587.94;10473800;28;20127;-82
2023/06/30 12:59:09;;;;;;;5.50;3.67;;;;;;;24.44;46.02;99595.53;10471897;28;20036;-84
2023/06/30 13:04:11;;;;;;;5.57;3.60;;;;;;;24.45;47.15;99605.56;10483897;28;20059;-83
2023/06/30 13:09:14;;;;;;;4.40;3.47;;;;;;;24.56;47.24;99612.78;10480880;28;20043;-82
2023/06/30 13:14:16;;;;;;;10.32;4.25;;;;;;;24.62;46.85;99628.00;10481988;28;20040;-83
2023/06/30 13:19:19;;;;;;;5.50;4.30;;;;;;;24.58;46.66;99629.22;10507269;28;20043;-86
2023/06/30 13:24:21;;;;;;;6.78;4.32;;;;;;;24.42;47.64;99637.22;10472249;28;20044;-89
2023/06/30 13:29:23;;;;;;;10.63;4.63;;;;;;;24.28;48.64;99638.75;10508377;28;20526;-85
2023/06/30 13:34:25;;;;;;;9.18;5.45;;;;;;;24.11;50.79;99633.91;10508857;28;20071;-84
2023/06/30 13:39:27;;;;;;;7.28;4.88;;;;;;;23.93;52.14;99621.84;10505248;28;20036;-85
2023/06/30 13:44:30;;;;;;;7.07;4.97;;;;;;;23.82;52.01;99623.84;10505712;28;20052;-83
2023/06/30 13:49:33;;;;;;;8.60;4.40;;;;;;;23.70;51.38;99637.00;10501312;28;20071;-85
2023/06/30 13:54:37;;;;;;;8.23;4.38;;;;;;;23.52;48.55;99666.91;10483212;28;20055;-87
2023/06/30 13:59:39;;;;;;;7.05;4.68;;;;;;;23.07;50.70;99651.41;10482612;28;20036;-88
2023/06/30 14:04:41;;;;;;;6.15;3.65;;;;;;;22.83;51.66;99644.47;10498487;28;20040;-85
2023/06/30 14:09:43;;;;;;;4.70;3.63;;;;;;;22.43;53.55;99646.09;10471952;28;20038;-85
2023/06/30 14:14:46;;;;;;;4.78;3.58;;;;;;;21.93;55.50;99645.53;10512477;28;20047;-86
2023/06/30 14:19:50;;;;;;;7.53;3.30;;;;;;;21.69;56.02;99640.44;10505723;28;20484;-85
2023/06/30 14:24:52;;;;;;;4.55;3.10;;;;;;;21.68;55.76;99631.28;10466510;28;20527;-84
2023/06/30 14:29:54;;;;;;;5.88;3.20;;;;;;;21.54;54.47;99619.16;10505354;28;20046;-82
2023/06/30 14:34:56;;;;;;;4.97;2.65;;;;;;;21.39;55.26;99609.00;10458159;28;20040;-82
2023/06/30 14:39:58;;;;;;;4.53;2.90;;;;;;;21.41;55.96;99607.41;10528852;28;20067;-86
2023/06/30 14:45:01;;;;;;;5.47;3.42;;;;;;;21.49;57.13;99597.94;10510127;28;20070;-84
2023/06/30 14:50:03;;;;;;;4.93;2.38;;;;;;;21.54;55.99;99594.03;10524241;28;20048;-85
2023/06/30 14:55:06;;;;;;;3.33;2.42;;;;;;;21.34;56.28;99582.19;10510617;28;20411;-82
2023/06/30 15:00:09;;;;;;;2.85;2.33;;;;;;;21.29;56.20;99582.53;10478521;28;20056;-88
2023/06/30 15:05:11;;;;;;;2.13;1.88;;;;;;;21.25;55.57;99584.47;10484432;28;20040;-83
2023/06/30 15:10:13;;;;;;;6.10;2.40;;;;;;;21.46;56.13;99581.16;10515465;28;20049;-84
2023/06/30 15:15:16;;;;;;;3.97;2.50;;;;;;;21.48;55.71;99562.03;10478667;28;20491;-83
2023/06/30 15:20:18;;;;;;;3.63;1.85;;;;;;;21.62;54.93;99548.25;10476547;28;20036;-87
2023/06/30 15:25:28;;;;;;;3.78;2.10;;;;;;;21.76;52.66;99531.66;10492857;28;20499;-84
2023/06/30 15:30:30;;;;;;;3.45;2.00;;;;;;;22.00;52.06;99535.06;10483161;28;20041;-86
2023/06/30 15:35:32;;;;;;;2.53;1.67;;;;;;;22.24;51.32;99535.31;10483274;28;20043;-86
2023/06/30 15:40:35;;;;;;;3.67;2.10;;;;;;;22.56;50.24;99538.38;10486067;28;20060;-83
2023/06/30 15:45:37;;;;;;;3.80;1.88;;;;;;;22.71;49.04;99538.44;10479593;28;20052;-83
2023/06/30 15:50:41;;;;;;;2.55;1.92;;;;;;;22.81;48.70;99532.94;10481581;28;20052;-82
2023/06/30 15:55:43;;;;;;;1.60;1.50;;;;;;;23.02;47.69;99534.28;10479719;28;20056;-84
2023/06/30 16:00:45;;;;;;;2.63;1.60;;;;;;;23.12;46.96;99520.34;10470449;28;20052;-85
2023/06/30 16:05:48;;;;;;;3.35;1.88;;;;;;;23.09;47.47;99509.13;10485192;28;20055;-84
2023/06/30 16:10:50;;;;;;;2.40;1.90;;;;;;;23.19;47.03;99501.97;10493843;28;20048;-84
2023/06/30 16:15:53;;;;;;;2.95;2.10;;;;;;;23.31;47.14;99507.22;10501658;28;20480;-84
2023/06/30 16:20:55;;;;;;;7.10;2.67;;;;;;;23.40;47.08;99502.84;10498137;28;20052;-84
2023/06/30 16:25:57;;;;;;;4.35;2.45;;;;;;;23.40;47.18;99499.22;10481236;28;20407;-84
2023/06/30 16:30:59;;;;;;;3.25;2.28;;;;;;;23.40;47.17;99499.22;10475845;28;20024;-85
2023/06/30 16:36:01;;;;;;;3.55;2.28;;;;;;;23.46;47.60;99501.28;10477942;28;20095;-85
2023/06/30 16:41:03;;;;;;;4.05;2.78;;;;;;;23.52;48.27;99501.69;10453788;28;20041;-86
2023/06/30 16:46:06;;;;;;;5.22;2.85;;;;;;;23.46;48.19;99492.88;10472695;28;20044;-86
2023/06/30 16:51:08;;;;;;;5.50;3.25;;;;;;;23.45;48.53;99493.28;10491017;28;20416;-86
2023/06/30 16:56:10;;;;;;;7.72;3.38;;;;;;;23.46;49.26;99494.88;10494519;28;20044;-87
2023/06/30 17:01:12;;;;;;;7.10;3.63;;;;;;;23.41;49.36;99487.63;10469892;28;20444;-87
2023/06/30 17:06:15;;;;;;;7.28;4.20;;;;;;;23.32;49.67;99486.44;10476348;28;20051;-85
2023/06/30 17:11:17;;;;;;;4.35;3.00;;;;;;;23.19;49.29;99485.97;10484356;28;20043;-86
2023/06/30 17:16:19;;;;;;;3.97;2.40;;;;;;;23.07;50.08;99487.13;10473122;28;20527;-86
2023/06/30 17:21:21;;;;;;;6.05;2.75;;;;;;;23.02;50.60;99492.31;10472101;28;20036;-85
2023/06/30 17:26:24;;;;;;;8.40;3.10;;;;;;;22.96;50.42;99480.69;10459630;28;20045;-86
2023/06/30 17:31:28;;;;;;;4.95;1.92;;;;;;;22.78;49.94;99488.16;10491358;28;20573;-86
2023/06/30 17:36:31;;;;;;;4.13;1.80;;;;;;;22.60;51.32;99484.47;10435834;28;20048;-86
2023/06/30 17:41:33;;;;;;;3.13;2.22;;;;;;;22.51;52.65;99480.00;10476560;28;20032;-87
2023/06/30 17:46:35;;;;;;;3.17;2.17;;;;;;;22.37;54.11;99474.31;10454256;28;20465;-86
2023/06/30 17:51:38;;;;;;;5.10;2.50;;;;;;;22.32;54.83;99477.47;10465800;28;20037;-86
2023/06/30 17:56:40;;;;;;;5.10;2.67;;;;;;;22.25;56.12;99467.06;10464368;28;20570;-87
2023/06/30 18:01:45;;;;;;;5.38;3.58;;;;;;;22.08;56.21;99472.53;10466704;28;20055;-85
2023/06/30 18:07:20;;;;;;;7.00;2.97;;;;;;;22.00;57.60;99470.81;10457700;28;20407;-85
2023/06/30 18:12:22;;;;;;;5.22;3.30;;;;;;;21.94;57.93;99464.78;10440189;28;20041;-85
2023/06/30 18:17:24;;;;;;;5.28;3.70;;;;;;;21.93;58.17;99469.56;10470921;28;20500;-86
2023/06/30 18:22:26;;;;;;;6.72;3.50;;;;;;;21.96;58.30;99466.00;10444562;28;20040;-86
2023/06/30 18:27:28;;;;;;;6.03;3.75;;;;;;;21.82;59.19;99468.66;10477227;28;20044;-83
2023/06/30 18:32:32;;;;;;;6.60;3.90;;;;;;;21.71;60.13;99470.56;10483535;28;20044;-84
2023/06/30 18:37:34;;;;;;;5.30;3.30;;;;;;;21.62;61.07;99472.88;10487636;28;20041;-85
2023/06/30 18:42:37;;;;;;;5.57;3.90;;;;;;;21.48;61.55;99487.47;10506575;28;20048;-83
2023/06/30 18:47:39;;;;;;;6.72;3.10;;;;;;;21.35;62.89;99475.78;10487650;28;20437;-84
2023/06/30 18:52:42;;;;;;;4.78;3.13;;;;;;;21.38;63.52;99476.22;10501085;28;20071;-84
2023/06/30 18:57:44;;;;;;;4.57;3.35;;;;;;;21.23;64.03;99469.63;10520981;28;20407;-82
2023/06/30 19:02:46;;;;;;;6.13;3.05;;;;;;;21.10;64.88;99469.06;10453395;28;20045;-84
2023/06/30 19:07:48;;;;;;;4.82;3.53;;;;;;;21.05;65.49;99461.06;10468881;28;20040;-84
2023/06/30 19:12:50;;;;;;;5.20;3.13;;;;;;;21.00;65.94;99464.16;10480468;28;20663;-84
2023/06/30 19:17:53;;;;;;;4.28;3.45;;;;;;;20.86;65.88;99458.44;10466981;28;20043;-86
2023/06/30 19:22:55;;;;;;;8.85;3.78;;;;;;;20.77;66.22;99451.13;10441389;28;20036;-83
2023/06/30 19:27:57;;;;;;;5.13;3.70;;;;;;;20.66;66.84;99453.00;10493846;28;20052;-85
2023/06/30 19:32:59;;;;;;;6.47;4.00;;;;;;;20.59;66.99;99449.31;10478490;28;20028;-84
2023/06/30 19:38:01;;;;;;;7.35;4.05;;;;;;;20.51;67.23;99442.84;10494715;28;20526;-86
2023/06/30 19:43:06;;;;;;;7.32;4.32;;;;;;;20.50;67.07;99446.81;10492128;28;20052;-84
2023/06/30 19:48:11;;;;;;;9.27;3.88;;;;;;;20.47;67.81;99439.16;10479501;28;20523;-85
2023/06/30 19:53:13;;;;;;;11.50;4.90;;;;;;;20.46;66.91;99443.94;10496793;28;20045;-89
2023/06/30 19:58:18;;;;;;;6.95;3.80;;;;;;;20.36;66.79;99447.38;10490408;28;20050;-87
2023/06/30 20:03:20;;;;;;;6.22;4.07;;;;;;;20.32;66.44;99443.72;10458967;28;20032;-89
2023/06/30 20:08:22;;;;;;;4.28;3.50;;;;;;;20.31;66.63;99439.34;10460493;28;20451;-85
2023/06/30 20:13:24;;;;;;;4.13;3.30;;;;;;;20.26;65.79;99436.06;10482217;28;20052;-87
2023/06/30 20:18:28;;;;;;;5.45;3.80;;;;;;;20.36;65.41;99435.41;10463988;28;20503;-86
2023/06/30 20:23:38;;;;;;;5.70;4.20;;;;;;;20.41;64.70;99423.97;10494517;28;20047;-87
2023/06/30 20:28:50;;;;;;;6.80;4.00;;;;;;;20.29;63.85;99421.38;10451966;28;20036;-95
2023/06/30 20:33:58;;;;;;;5.57;3.85;;;;;;;20.24;64.28;99411.38;10472262;28;20135;-90
2023/06/30 20:39:03;;;;;;;7.47;4.50;;;;;;;20.15;64.49;99408.88;10496592;28;20059;-93
2023/06/30 20:44:08;;;;;;;7.13;4.10;;;;;;;20.15;64.69;99399.69;10489445;28;20105;-94
2023/06/30 20:49:11;;;;;;;8.23;5.53;;;;;;;20.27;65.43;99395.88;10458756;28;20040;-89
2023/06/30 20:54:16;;;;;;;8.82;5.80;;;;;;;20.30;67.65;99403.47;10467088;28;20043;-86
2023/06/30 20:59:18;;;;;;;9.05;6.10;;;;;;;20.15;68.83;99388.56;10451098;28;20056;-88
2023/06/30 21:04:20;;;;;;;10.10;6.30;;;;;;;20.06;69.63;99391.59;10450751;28;20044;-87
2023/06/30 21:09:24;;;;;;;11.02;6.00;;;;;;;20.01;69.69;99383.59;10479709;28;20143;-88
2023/06/30 21:14:26;;;;;;;10.02;6.07;;;;;;;19.85;70.41;99380.94;10466523;28;20040;-84
2023/06/30 21:19:28;;;;;;;9.18;6.10;;;;;;;19.84;70.39;99386.91;10460561;28;20044;-88
2023/06/30 21:24:31;;;;;;;10.50;6.47;;;;;;;19.80;70.09;99380.47;10433155;28;20044;-87
2023/06/30 21:29:38;;;;;;;11.55;5.72;;;;;;;19.84;70.03;99365.44;10450647;28;20035;-85
2023/06/30 21:34:40;;;;;;;11.18;5.43;;;;;;;19.82;69.32;99361.41;10470229;28;20650;-86
2023/06/30 21:39:43;;;;;;;9.38;5.60;;;;;;;19.79;69.64;99353.81;10433035;28;20044;-83
2023/06/30 21:44:49;;;;;;;9.98;5.45;;;;;;;19.85;69.04;99341.97;10464023;28;20060;-83
2023/06/30 21:49:54;;;;;;;9.32;5.68;;;;;;;19.92;69.70;99338.47;10492225;28;20044;-83
2023/06/30 21:54:56;;;;;;;10.07;5.68;;;;;;;19.97;69.07;99326.25;10442243;28;20044;-86
2023/06/30 21:59:58;;;;;;;8.38;5.15;;;;;;;19.98;69.57;99336.19;10462030;28;20431;-83
2023/06/30 22:05:00;;;;;;;13.30;7.35;;;;;;;20.01;69.73;99327.88;10457751;28;20040;-83
2023/06/30 22:10:05;;;;;;;13.85;7.47;;;;;;;20.07;69.63;99328.34;10458464;28;20035;-83
2023/06/30 22:15:07;;;;;;;11.85;7.15;;;;;;;20.06;70.80;99327.56;10512957;28;20047;-83
2023/06/30 22:20:10;;;;;;;12.70;6.80;;;;;;;19.97;70.73;99313.13;10481284;28;20028;-83
2023/06/30 22:25:17;;;;;;;10.50;6.50;;;;;;;19.96;71.77;99313.47;10486800;28;20040;-83
2023/06/30 22:30:28;;;;;;;12.07;6.53;;;;;;;19.88;72.23;99315.38;10461456;28;20055;-82
2023/06/30 22:35:30;;;;;;;14.77;6.60;;;;;;;19.78;73.29;99321.56;10452048;28;20507;-82
2023/06/30 22:40:32;;;;;;;14.02;7.68;;;;;;;19.72;72.99;99318.31;10443794;28;20044;-82
2023/06/30 22:45:35;;;;;;;16.23;7.38;;;;;;;19.60;73.91;99309.34;10460943;28;20061;-83
2023/06/30 22:50:37;;;;;;;14.93;8.43;;;;;;;19.53;74.44;99319.19;10490755;28;20056;-83
2023/06/30 22:55:39;;;;;;;11.73;7.25;;;;;;;19.49;74.73;99312.75;10491489;28;20048;-83
2023/06/30 23:00:41;;;;;;;10.60;6.63;;;;;;;19.51;75.06;99309.59;10480281;28;20044;-83
2023/06/30 23:05:43;;;;;;;9.02;6.80;;;;;;;19.54;74.49;99306.09;10460380;28;20514;-82
2023/06/30 23:10:45;;;;;;;9.60;6.20;;;;;;;19.57;73.70;99306.16;10482828;28;20040;-83
2023/06/30 23:15:48;;;;;;;9.35;6.32;;;;;;;19.64;73.58;99304.66;10480623;28;20491;-83
2023/06/30 23:20:51;;;;;;;14.20;7.75;;;;;;;19.72;74.04;99292.47;10466663;28;20044;-83
2023/06/30 23:25:54;;;;;;;10.32;6.60;;;;;;;19.61;73.82;99297.03;10476200;28;20044;-83
2023/06/30 23:30:56;;;;;;;14.35;6.78;;;;;;;19.52;73.47;99286.16;10456923;28;20061;-83